Accueil
METAR-TAF:

METAR-TAF

Aéroports :

Base aérienne 126 Solenzara

Solenzara, France

latitude: 41-55N, longitude: 009-24E, altitude: 8 m

Observation

Le bulletin a été fait il y a 26 minutes, à 21:30 UTC
Vent 2 kt de direction variable
Température 26°C
Humidité 74%
Pression 1018 hPa
Visibilité 10 km ou plus
pas de nuages en-dessous de 1500 mètres et pas de cumulonimbus.

METAR: LFKS 222130Z AUTO VRB02KT CAVOK 26/21 Q1018

Heure: 23:56 (21:56 UTC)

Prévision

Le bulletin a été fait il y a 7 heures et 56 minutes, à 14:00 UTC
Prévision valable du 22 à 15 UTC au 23 à 15 UTC
Vent 5 kt de est/sud-est
Visibilité 10 km ou plus
Quelques nuages à une hauteur de 4000 ft
Nuages épars à une hauteur de 5000 ft, Cumulonimbus.
Nuages fragmentés à une hauteur de 14000 ft
orage à proximité
Temporairement
du 22 à 15 UTC au 22 à 18 UTC
averses de pluie

TAF: LFKS 221400Z 2215/2315 11005KT 9999 VCTS FEW040 SCT050CB BKN140 TEMPO 2215/2218 SHRA

Observations et prévisions météorologiques de plus de 4000 aéroports (messages METAR et TAF).

Les stations disponibles sont représentées par des disques jaunes et rouges sur la carte.

Passer la souris dessus pour voir le nom de la station.

Cliquer dessus pour voir les observations et prévisions météorologiques.

Pour changer de carte: cliquez sur les boutons verts avec une croix noire pour zoomer, sur le bouton vert avec un tiret pour effectuer un zoom arrière, ou sur les flèches vertes pour les cartes adjacentes.


METAR-TAF: